createdAt,value
2022-12-25T00:00:06.227Z,6.4
2022-12-25T00:05:53.800Z,6.2
2022-12-25T00:11:53.578Z,5.5
2022-12-25T00:17:51.330Z,5
2022-12-25T00:23:46.281Z,5.4
2022-12-25T00:29:56.231Z,5.9
2022-12-25T00:35:42.850Z,4.3
2022-12-25T00:41:26.891Z,4
2022-12-25T00:47:21.417Z,3.8
2022-12-25T00:53:06.426Z,5
2022-12-25T00:58:51.128Z,5
2022-12-25T01:04:38.115Z,4.6
2022-12-25T01:10:21.633Z,4.4
2022-12-25T01:16:07.954Z,3.6
2022-12-25T01:21:57.156Z,4.3
2022-12-25T01:27:41.729Z,6.3
2022-12-25T01:33:38.054Z,3.3
2022-12-25T01:39:35.432Z,4.5
2022-12-25T01:45:44.939Z,4.2
2022-12-25T01:51:50.771Z,4.3
2022-12-25T01:57:45.183Z,5.9
2022-12-25T02:03:39.448Z,3.9
2022-12-25T02:09:37.842Z,4
2022-12-25T02:15:39.752Z,3.5
2022-12-25T02:21:46.233Z,3.7
2022-12-25T02:28:12.796Z,5.2
2022-12-25T02:34:12.925Z,4.2
2022-12-25T02:40:06.929Z,3.1
2022-12-25T02:45:58.095Z,3.5
2022-12-25T02:51:56.169Z,3.4
2022-12-25T02:57:53.256Z,4.9
2022-12-25T03:03:55.695Z,3.6
2022-12-25T03:09:44.590Z,2.4
2022-12-25T03:15:41.942Z,4.4
2022-12-25T03:21:46.390Z,3.1
2022-12-25T03:27:45.883Z,4
2022-12-25T03:33:49.453Z,4.4
2022-12-25T03:39:54.776Z,3.8
2022-12-25T03:45:48.699Z,3
2022-12-25T03:51:40.715Z,3
2022-12-25T03:57:29.127Z,3.6
2022-12-25T04:03:33.130Z,2.8
2022-12-25T04:09:17.000Z,3.3
2022-12-25T04:15:15.279Z,2.3
2022-12-25T04:20:59.373Z,2.6
2022-12-25T04:27:14.093Z,3.5
2022-12-25T04:33:08.835Z,3.2
2022-12-25T04:39:11.618Z,2.9
2022-12-25T04:44:58.756Z,2.3
2022-12-25T04:51:07.601Z,2.8
2022-12-25T04:56:56.757Z,2.7
2022-12-25T05:02:52.866Z,4.4
2022-12-25T05:08:52.346Z,3.5
2022-12-25T05:14:43.928Z,2
2022-12-25T05:20:42.507Z,2.4
2022-12-25T05:26:39.417Z,2.2
2022-12-25T05:32:25.160Z,2.3
2022-12-25T05:38:14.975Z,2.3
2022-12-25T05:44:05.154Z,1.9
2022-12-25T05:49:49.122Z,1.8
2022-12-25T05:55:35.919Z,1.8
2022-12-25T06:01:27.173Z,1.5
2022-12-25T06:07:12.240Z,2.2
2022-12-25T06:12:56.256Z,2.4
2022-12-25T06:18:42.901Z,2.7
2022-12-25T06:25:03.182Z,1.8
2022-12-25T06:31:16.754Z,2.4
2022-12-25T06:37:25.692Z,1.9
2022-12-25T06:43:29.020Z,1.6
2022-12-25T06:49:17.321Z,2
2022-12-25T07:01:34.406Z,1.8
2022-12-25T07:07:30.041Z,1.5
2022-12-25T07:13:28.544Z,1.7
2022-12-25T07:19:18.862Z,2
2022-12-25T07:25:10.535Z,1.9
2022-12-25T07:31:15.540Z,1.9
2022-12-25T07:37:25.394Z,1.1
2022-12-25T07:43:08.706Z,3.1
2022-12-25T07:48:53.490Z,1.9
2022-12-25T07:54:49.142Z,2
2022-12-25T08:00:32.672Z,2.3
2022-12-25T08:06:18.459Z,1.2
2022-12-25T08:12:02.081Z,1.1
2022-12-25T08:17:48.679Z,1.5
2022-12-25T08:23:46.752Z,2.1
2022-12-25T08:29:54.269Z,1.1
2022-12-25T08:35:37.077Z,2
2022-12-25T08:41:48.540Z,1.6
2022-12-25T08:47:45.617Z,1.7
2022-12-25T08:53:40.814Z,1.6
2022-12-25T08:59:47.068Z,1.6
2022-12-25T09:05:42.313Z,1.5
2022-12-25T09:11:27.304Z,1.5
2022-12-25T09:17:22.352Z,1.9
2022-12-25T09:23:15.591Z,1.5
2022-12-25T09:29:18.367Z,2
2022-12-25T09:35:16.698Z,2.1
2022-12-25T09:41:27.126Z,2.3
2022-12-25T09:47:15.140Z,3
2022-12-25T09:52:59.905Z,4.4
2022-12-25T09:58:44.239Z,3
2022-12-25T10:04:42.457Z,2.6
2022-12-25T10:10:32.837Z,3.2
2022-12-25T10:16:22.726Z,2.2
2022-12-25T10:22:13.483Z,2.1
2022-12-25T10:27:59.474Z,1.6
2022-12-25T10:33:42.661Z,2
2022-12-25T10:39:27.013Z,2
2022-12-25T10:45:11.005Z,2
2022-12-25T10:50:54.202Z,2.4
2022-12-25T10:56:37.746Z,1.9
2022-12-25T11:02:24.521Z,1.8
2022-12-25T11:08:12.501Z,2.2
2022-12-25T11:13:57.257Z,1.8
2022-12-25T11:19:39.980Z,2.5
2022-12-25T11:25:24.972Z,3.3
2022-12-25T11:31:09.619Z,3.1
2022-12-25T11:36:54.056Z,3.2
2022-12-25T11:42:38.794Z,2.3
2022-12-25T11:48:25.635Z,3.3
2022-12-25T11:54:14.678Z,3
2022-12-25T12:00:00.716Z,3.6
2022-12-25T12:05:46.863Z,2.8
2022-12-25T12:11:34.952Z,4.1
2022-12-25T12:17:19.228Z,4.3
2022-12-25T12:23:04.716Z,5.1
2022-12-25T12:28:50.206Z,3.9
2022-12-25T12:34:36.135Z,4.3
2022-12-25T12:40:30.028Z,3.6
2022-12-25T12:46:18.028Z,3.3
2022-12-25T12:52:20.868Z,3.7
2022-12-25T12:58:05.245Z,3.8
2022-12-25T13:04:00.384Z,5.2
2022-12-25T13:09:50.815Z,3.9
2022-12-25T13:15:34.981Z,4.7
2022-12-25T13:21:20.022Z,5.5
2022-12-25T13:27:03.033Z,5.2
2022-12-25T13:32:46.180Z,5.4
2022-12-25T13:38:30.229Z,6
2022-12-25T13:44:19.232Z,10.3
2022-12-25T13:50:03.002Z,9.3
2022-12-25T13:55:48.968Z,9.8
2022-12-25T14:01:32.540Z,11.1
2022-12-25T14:07:20.951Z,12.1
2022-12-25T14:13:05.981Z,10.1
2022-12-25T14:18:57.066Z,9.3
2022-12-25T14:24:41.714Z,8.6
2022-12-25T14:30:25.505Z,8.9
2022-12-25T14:36:09.142Z,8.5
2022-12-25T14:41:54.070Z,7.8
2022-12-25T14:47:46.296Z,7
2022-12-25T14:53:34.218Z,7.9
2022-12-25T14:59:25.218Z,6.4
2022-12-25T15:05:08.509Z,6.9
2022-12-25T15:11:04.304Z,7.5
2022-12-25T15:16:49.200Z,6.5
2022-12-25T15:23:10.525Z,9.5
2022-12-25T15:28:34.911Z,6.3
2022-12-25T15:34:20.343Z,6.6
2022-12-25T15:40:06.749Z,6.4
2022-12-25T15:45:49.835Z,6.8
2022-12-25T15:51:32.785Z,6
2022-12-25T15:57:43.262Z,6.7
2022-12-25T16:03:26.456Z,5.2
2022-12-25T16:09:09.388Z,5.9
2022-12-25T16:14:52.401Z,6.6
2022-12-25T16:20:35.392Z,6.6
2022-12-25T16:26:18.452Z,6.4
2022-12-25T16:32:01.353Z,6.5
2022-12-25T16:37:44.526Z,6.2
2022-12-25T16:43:27.715Z,6.6
2022-12-25T16:49:10.645Z,6.3
2022-12-25T16:54:53.381Z,7.8
2022-12-25T17:00:37.143Z,7.3
2022-12-25T17:06:23.430Z,5.6
2022-12-25T17:12:06.715Z,6.5
2022-12-25T17:17:49.497Z,6.4
2022-12-25T17:23:32.376Z,7.6
2022-12-25T17:29:24.715Z,6.6
2022-12-25T17:35:08.148Z,8.5
2022-12-25T17:40:55.846Z,7.1
2022-12-25T17:46:39.104Z,6.3
2022-12-25T17:52:22.088Z,7.4
2022-12-25T17:58:05.959Z,6.5
2022-12-25T18:03:49.670Z,6.1
2022-12-25T18:09:32.508Z,6.1
2022-12-25T18:15:16.028Z,5.6
2022-12-25T18:20:59.146Z,6.5
2022-12-25T18:26:41.985Z,5.2
2022-12-25T18:32:30.174Z,7.3
2022-12-25T18:38:13.753Z,6.9
2022-12-25T18:43:58.783Z,7.1
2022-12-25T18:49:41.621Z,6
2022-12-25T18:55:24.774Z,5.6
2022-12-25T19:01:11.901Z,7.4
2022-12-25T19:06:54.742Z,5.1
2022-12-25T19:12:37.673Z,6.1
2022-12-25T19:18:20.482Z,7.4
2022-12-25T19:24:03.349Z,6.1
2022-12-25T19:29:46.232Z,6.1
2022-12-25T19:35:30.169Z,5.3
2022-12-25T19:41:14.615Z,5.7
2022-12-25T19:46:57.369Z,7.1
2022-12-25T19:52:40.142Z,6.1
2022-12-25T19:58:25.729Z,5.4
2022-12-25T20:04:08.760Z,5.6
2022-12-25T20:09:51.648Z,6.7
2022-12-25T20:15:34.574Z,6
2022-12-25T20:21:18.115Z,7.1
2022-12-25T20:27:02.260Z,6.5
2022-12-25T20:32:52.531Z,6.2
2022-12-25T20:38:35.670Z,5.1
2022-12-25T20:44:18.611Z,6.5
2022-12-25T20:50:01.399Z,5.6
2022-12-25T20:55:45.951Z,7
2022-12-25T21:01:29.874Z,5.3
2022-12-25T21:07:12.759Z,4.5
2022-12-25T21:12:55.686Z,5.1
2022-12-25T21:18:38.545Z,5.1
2022-12-25T21:24:21.472Z,6.5
2022-12-25T21:30:16.758Z,6.8
2022-12-25T21:35:59.633Z,5.5
2022-12-25T21:41:42.381Z,5.8
2022-12-25T21:47:25.237Z,5.1
2022-12-25T21:53:08.654Z,5.4
2022-12-25T21:58:51.467Z,4.8
2022-12-25T22:04:34.185Z,4.3
2022-12-25T22:10:16.963Z,6.3
2022-12-25T22:16:04.922Z,5.7
2022-12-25T22:21:47.659Z,7.2
2022-12-25T22:27:32.078Z,5.6
2022-12-25T22:33:16.144Z,5.3
2022-12-25T22:38:58.844Z,4.4
2022-12-25T22:44:41.954Z,4.7
2022-12-25T22:50:25.121Z,6.4
2022-12-25T22:56:09.987Z,6
2022-12-25T23:01:53.632Z,6.1
2022-12-25T23:07:36.551Z,5.2
2022-12-25T23:13:19.726Z,5
2022-12-25T23:19:02.802Z,5
2022-12-25T23:24:45.538Z,5.6
2022-12-25T23:30:28.593Z,4.4
2022-12-25T23:36:11.798Z,5.4
2022-12-25T23:41:54.801Z,6.1
2022-12-25T23:47:37.763Z,6.4
2022-12-25T23:53:20.556Z,5.3
2022-12-25T23:59:05.733Z,6.2
